sensor_id;sensor_type;location;lat;lon;timestamp;temperature;humidity
36416;DHT22;22447;44.530;18.620;2023-03-20T00:00:50;9.20;99.90
36416;DHT22;22447;44.530;18.620;2023-03-20T00:03:17;9.20;99.90
36416;DHT22;22447;44.530;18.620;2023-03-20T00:05:43;9.10;99.90
36416;DHT22;22447;44.530;18.620;2023-03-20T00:08:09;8.90;99.90
36416;DHT22;22447;44.530;18.620;2023-03-20T00:10:43;8.80;99.90
36416;DHT22;22447;44.530;18.620;2023-03-20T00:13:20;8.70;99.90
36416;DHT22;22447;44.530;18.620;2023-03-20T00:15:49;8.60;99.90
36416;DHT22;22447;44.530;18.620;2023-03-20T00:18:17;8.60;99.90
36416;DHT22;22447;44.530;18.620;2023-03-20T00:20:50;8.50;99.90
36416;DHT22;22447;44.530;18.620;2023-03-20T00:23:16;8.40;99.90
36416;DHT22;22447;44.530;18.620;2023-03-20T00:25:45;8.30;99.90
36416;DHT22;22447;44.530;18.620;2023-03-20T00:28:40;8.20;99.90
36416;DHT22;22447;44.530;18.620;2023-03-20T00:33:44;8.10;99.90
36416;DHT22;22447;44.530;18.620;2023-03-20T00:36:10;8.10;99.90
36416;DHT22;22447;44.530;18.620;2023-03-20T00:38:37;8.20;99.90
36416;DHT22;22447;44.530;18.620;2023-03-20T00:41:22;8.20;99.90
36416;DHT22;22447;44.530;18.620;2023-03-20T00:43:51;8.20;99.90
36416;DHT22;22447;44.530;18.620;2023-03-20T00:46:18;8.20;99.90
36416;DHT22;22447;44.530;18.620;2023-03-20T00:48:44;8.00;99.90
36416;DHT22;22447;44.530;18.620;2023-03-20T00:51:11;8.00;99.90
36416;DHT22;22447;44.530;18.620;2023-03-20T00:53:37;8.20;99.90
36416;DHT22;22447;44.530;18.620;2023-03-20T00:56:03;8.20;99.90
36416;DHT22;22447;44.530;18.620;2023-03-20T00:58:31;8.20;99.90
36416;DHT22;22447;44.530;18.620;2023-03-20T01:00:58;8.20;99.90
36416;DHT22;22447;44.530;18.620;2023-03-20T01:03:25;8.30;99.90
36416;DHT22;22447;44.530;18.620;2023-03-20T01:05:52;8.40;99.90
36416;DHT22;22447;44.530;18.620;2023-03-20T01:08:21;8.30;99.90
36416;DHT22;22447;44.530;18.620;2023-03-20T01:10:50;8.30;99.90
36416;DHT22;22447;44.530;18.620;2023-03-20T01:13:26;8.10;99.90
36416;DHT22;22447;44.530;18.620;2023-03-20T01:15:53;8.10;99.90
36416;DHT22;22447;44.530;18.620;2023-03-20T01:18:21;8.00;99.90
36416;DHT22;22447;44.530;18.620;2023-03-20T01:20:49;8.00;99.90
36416;DHT22;22447;44.530;18.620;2023-03-20T01:23:15;7.90;99.90
36416;DHT22;22447;44.530;18.620;2023-03-20T01:25:41;7.80;99.90
36416;DHT22;22447;44.530;18.620;2023-03-20T01:28:14;7.80;99.90
36416;DHT22;22447;44.530;18.620;2023-03-20T01:30:41;7.80;99.90
36416;DHT22;22447;44.530;18.620;2023-03-20T01:33:18;7.90;99.90
36416;DHT22;22447;44.530;18.620;2023-03-20T01:35:49;7.90;99.90
36416;DHT22;22447;44.530;18.620;2023-03-20T01:38:23;7.90;99.90
36416;DHT22;22447;44.530;18.620;2023-03-20T01:40:56;7.90;99.90
36416;DHT22;22447;44.530;18.620;2023-03-20T01:43:26;7.80;99.90
36416;DHT22;22447;44.530;18.620;2023-03-20T01:46:04;7.80;99.90
36416;DHT22;22447;44.530;18.620;2023-03-20T01:51:18;7.60;99.90
36416;DHT22;22447;44.530;18.620;2023-03-20T01:53:52;7.60;99.90
36416;DHT22;22447;44.530;18.620;2023-03-20T01:56:20;7.50;99.90
36416;DHT22;22447;44.530;18.620;2023-03-20T01:58:55;7.50;99.90
36416;DHT22;22447;44.530;18.620;2023-03-20T02:01:25;7.60;99.90
36416;DHT22;22447;44.530;18.620;2023-03-20T02:03:53;7.60;99.90
36416;DHT22;22447;44.530;18.620;2023-03-20T02:06:31;7.50;99.90
36416;DHT22;22447;44.530;18.620;2023-03-20T02:09:20;7.60;99.90
36416;DHT22;22447;44.530;18.620;2023-03-20T02:11:48;7.50;99.90
36416;DHT22;22447;44.530;18.620;2023-03-20T02:14:17;7.50;99.90
36416;DHT22;22447;44.530;18.620;2023-03-20T02:16:55;7.50;99.90
36416;DHT22;22447;44.530;18.620;2023-03-20T02:20:06;7.60;99.90
36416;DHT22;22447;44.530;18.620;2023-03-20T02:34:54;7.70;99.90
36416;DHT22;22447;44.530;18.620;2023-03-20T02:40:24;7.60;99.90
36416;DHT22;22447;44.530;18.620;2023-03-20T02:43:08;7.60;99.90
36416;DHT22;22447;44.530;18.620;2023-03-20T02:49:34;7.50;99.90
36416;DHT22;22447;44.530;18.620;2023-03-20T02:52:14;7.50;99.90
36416;DHT22;22447;44.530;18.620;2023-03-20T02:57:40;7.50;99.90
36416;DHT22;22447;44.530;18.620;2023-03-20T03:00:15;7.50;99.90
36416;DHT22;22447;44.530;18.620;2023-03-20T03:02:49;7.60;99.90
36416;DHT22;22447;44.530;18.620;2023-03-20T03:05:23;7.50;99.90
36416;DHT22;22447;44.530;18.620;2023-03-20T03:07:52;7.40;99.90
36416;DHT22;22447;44.530;18.620;2023-03-20T03:10:25;7.30;99.90
36416;DHT22;22447;44.530;18.620;2023-03-20T03:12:55;7.40;99.90
36416;DHT22;22447;44.530;18.620;2023-03-20T03:15:30;7.50;99.90
36416;DHT22;22447;44.530;18.620;2023-03-20T03:17:58;7.40;99.90
36416;DHT22;22447;44.530;18.620;2023-03-20T03:20:29;7.30;99.90
36416;DHT22;22447;44.530;18.620;2023-03-20T03:22:58;7.20;99.90
36416;DHT22;22447;44.530;18.620;2023-03-20T03:25:29;7.20;99.90
36416;DHT22;22447;44.530;18.620;2023-03-20T03:30:45;7.10;99.90
36416;DHT22;22447;44.530;18.620;2023-03-20T03:33:28;7.20;99.90
36416;DHT22;22447;44.530;18.620;2023-03-20T03:36:07;7.20;99.90
36416;DHT22;22447;44.530;18.620;2023-03-20T03:38:55;7.20;99.90
36416;DHT22;22447;44.530;18.620;2023-03-20T03:41:40;7.20;99.90
36416;DHT22;22447;44.530;18.620;2023-03-20T03:46:59;7.10;99.90
36416;DHT22;22447;44.530;18.620;2023-03-20T03:49:31;7.10;99.90
36416;DHT22;22447;44.530;18.620;2023-03-20T03:52:02;7.10;99.90
36416;DHT22;22447;44.530;18.620;2023-03-20T03:54:54;7.00;99.90
36416;DHT22;22447;44.530;18.620;2023-03-20T03:57:52;7.00;99.90
36416;DHT22;22447;44.530;18.620;2023-03-20T04:00:24;6.90;99.90
36416;DHT22;22447;44.530;18.620;2023-03-20T04:02:57;6.90;99.90
36416;DHT22;22447;44.530;18.620;2023-03-20T04:05:27;6.90;99.90
36416;DHT22;22447;44.530;18.620;2023-03-20T04:07:58;6.80;99.90
36416;DHT22;22447;44.530;18.620;2023-03-20T04:10:24;6.80;99.90
36416;DHT22;22447;44.530;18.620;2023-03-20T04:12:50;6.80;99.90
36416;DHT22;22447;44.530;18.620;2023-03-20T04:15:17;6.80;99.90
36416;DHT22;22447;44.530;18.620;2023-03-20T04:17:43;6.70;99.90
36416;DHT22;22447;44.530;18.620;2023-03-20T04:20:12;6.70;99.90
36416;DHT22;22447;44.530;18.620;2023-03-20T04:22:38;6.70;99.90
36416;DHT22;22447;44.530;18.620;2023-03-20T04:25:08;6.70;99.90
36416;DHT22;22447;44.530;18.620;2023-03-20T04:27:35;6.60;99.90
36416;DHT22;22447;44.530;18.620;2023-03-20T04:30:08;6.60;99.90
36416;DHT22;22447;44.530;18.620;2023-03-20T04:32:58;6.60;99.90
36416;DHT22;22447;44.530;18.620;2023-03-20T04:35:41;6.60;99.90
36416;DHT22;22447;44.530;18.620;2023-03-20T04:38:13;6.60;99.90
36416;DHT22;22447;44.530;18.620;2023-03-20T04:40:39;6.50;99.90
36416;DHT22;22447;44.530;18.620;2023-03-20T04:43:05;6.50;99.90
36416;DHT22;22447;44.530;18.620;2023-03-20T04:45:31;6.40;99.90
36416;DHT22;22447;44.530;18.620;2023-03-20T04:47:58;6.40;99.90
36416;DHT22;22447;44.530;18.620;2023-03-20T04:50:24;6.40;99.90
36416;DHT22;22447;44.530;18.620;2023-03-20T04:52:51;6.30;99.90
36416;DHT22;22447;44.530;18.620;2023-03-20T04:55:17;6.40;99.90
36416;DHT22;22447;44.530;18.620;2023-03-20T04:57:43;6.40;99.90
36416;DHT22;22447;44.530;18.620;2023-03-20T05:00:11;6.50;99.90
36416;DHT22;22447;44.530;18.620;2023-03-20T05:02:37;6.50;99.90
36416;DHT22;22447;44.530;18.620;2023-03-20T05:05:03;6.40;99.90
36416;DHT22;22447;44.530;18.620;2023-03-20T05:07:33;6.40;99.90
36416;DHT22;22447;44.530;18.620;2023-03-20T05:10:04;6.40;99.90
36416;DHT22;22447;44.530;18.620;2023-03-20T05:12:35;6.30;99.90
36416;DHT22;22447;44.530;18.620;2023-03-20T05:15:21;6.30;99.90
36416;DHT22;22447;44.530;18.620;2023-03-20T05:17:47;6.40;99.90
36416;DHT22;22447;44.530;18.620;2023-03-20T05:20:48;6.40;99.90
36416;DHT22;22447;44.530;18.620;2023-03-20T05:23:49;6.40;99.90
36416;DHT22;22447;44.530;18.620;2023-03-20T05:26:54;6.40;99.90
36416;DHT22;22447;44.530;18.620;2023-03-20T05:29:47;6.40;99.90
36416;DHT22;22447;44.530;18.620;2023-03-20T05:32:25;6.50;99.90
36416;DHT22;22447;44.530;18.620;2023-03-20T05:35:14;6.50;99.90
36416;DHT22;22447;44.530;18.620;2023-03-20T05:37:45;6.60;99.90
36416;DHT22;22447;44.530;18.620;2023-03-20T05:40:33;6.70;99.90
36416;DHT22;22447;44.530;18.620;2023-03-20T05:43:24;6.80;99.90
36416;DHT22;22447;44.530;18.620;2023-03-20T05:46:22;6.90;99.90
36416;DHT22;22447;44.530;18.620;2023-03-20T05:49:11;7.00;99.90
36416;DHT22;22447;44.530;18.620;2023-03-20T05:51:55;7.20;99.90
36416;DHT22;22447;44.530;18.620;2023-03-20T05:54:29;7.40;99.90
36416;DHT22;22447;44.530;18.620;2023-03-20T05:57:13;7.50;99.90
36416;DHT22;22447;44.530;18.620;2023-03-20T05:59:51;7.70;99.90
36416;DHT22;22447;44.530;18.620;2023-03-20T06:02:44;7.90;99.90
36416;DHT22;22447;44.530;18.620;2023-03-20T06:05:33;8.00;99.90
36416;DHT22;22447;44.530;18.620;2023-03-20T06:08:01;8.20;99.90
36416;DHT22;22447;44.530;18.620;2023-03-20T06:10:27;8.40;99.90
36416;DHT22;22447;44.530;18.620;2023-03-20T06:12:56;8.60;99.90
36416;DHT22;22447;44.530;18.620;2023-03-20T06:15:27;8.80;99.90
36416;DHT22;22447;44.530;18.620;2023-03-20T06:18:00;9.00;99.90
36416;DHT22;22447;44.530;18.620;2023-03-20T06:20:27;9.20;99.90
36416;DHT22;22447;44.530;18.620;2023-03-20T06:22:53;9.50;99.90
36416;DHT22;22447;44.530;18.620;2023-03-20T06:25:19;9.70;99.90
36416;DHT22;22447;44.530;18.620;2023-03-20T06:27:46;10.00;99.90
36416;DHT22;22447;44.530;18.620;2023-03-20T06:30:14;10.30;99.90
36416;DHT22;22447;44.530;18.620;2023-03-20T06:32:41;10.50;99.90
36416;DHT22;22447;44.530;18.620;2023-03-20T06:35:10;10.80;99.90
36416;DHT22;22447;44.530;18.620;2023-03-20T06:37:39;11.20;99.90
36416;DHT22;22447;44.530;18.620;2023-03-20T06:40:10;11.40;99.90
36416;DHT22;22447;44.530;18.620;2023-03-20T06:42:37;11.60;99.90
36416;DHT22;22447;44.530;18.620;2023-03-20T06:45:05;11.90;99.90
36416;DHT22;22447;44.530;18.620;2023-03-20T06:47:48;12.20;99.90
36416;DHT22;22447;44.530;18.620;2023-03-20T06:50:16;12.40;99.90
36416;DHT22;22447;44.530;18.620;2023-03-20T06:52:42;12.30;99.90
36416;DHT22;22447;44.530;18.620;2023-03-20T06:55:28;12.60;99.90
36416;DHT22;22447;44.530;18.620;2023-03-20T06:57:54;12.80;99.90
36416;DHT22;22447;44.530;18.620;2023-03-20T07:00:21;13.30;99.90
36416;DHT22;22447;44.530;18.620;2023-03-20T07:02:48;13.40;99.90
36416;DHT22;22447;44.530;18.620;2023-03-20T07:05:15;13.60;99.90
36416;DHT22;22447;44.530;18.620;2023-03-20T07:07:41;13.80;99.90
36416;DHT22;22447;44.530;18.620;2023-03-20T07:10:08;13.90;99.90
36416;DHT22;22447;44.530;18.620;2023-03-20T07:12:40;14.00;99.90
36416;DHT22;22447;44.530;18.620;2023-03-20T07:15:07;14.10;99.90
36416;DHT22;22447;44.530;18.620;2023-03-20T07:17:33;14.50;99.90
36416;DHT22;22447;44.530;18.620;2023-03-20T07:19:59;14.80;99.90
36416;DHT22;22447;44.530;18.620;2023-03-20T07:22:27;14.90;99.90
36416;DHT22;22447;44.530;18.620;2023-03-20T07:25:10;15.00;99.90
36416;DHT22;22447;44.530;18.620;2023-03-20T07:27:36;15.40;99.90
36416;DHT22;22447;44.530;18.620;2023-03-20T07:30:03;15.60;99.90
36416;DHT22;22447;44.530;18.620;2023-03-20T07:32:30;15.80;99.90
36416;DHT22;22447;44.530;18.620;2023-03-20T07:34:59;16.20;99.90
36416;DHT22;22447;44.530;18.620;2023-03-20T07:37:29;16.30;99.90
36416;DHT22;22447;44.530;18.620;2023-03-20T07:39:59;16.40;99.90
36416;DHT22;22447;44.530;18.620;2023-03-20T07:42:34;16.40;99.90
36416;DHT22;22447;44.530;18.620;2023-03-20T07:45:12;16.60;99.90
36416;DHT22;22447;44.530;18.620;2023-03-20T07:47:46;16.50;99.90
36416;DHT22;22447;44.530;18.620;2023-03-20T07:50:13;16.50;99.90
36416;DHT22;22447;44.530;18.620;2023-03-20T07:52:47;16.30;99.90
36416;DHT22;22447;44.530;18.620;2023-03-20T07:55:15;16.20;99.90
36416;DHT22;22447;44.530;18.620;2023-03-20T07:57:42;16.50;99.90
36416;DHT22;22447;44.530;18.620;2023-03-20T08:00:09;16.60;99.90
36416;DHT22;22447;44.530;18.620;2023-03-20T08:02:38;16.80;99.90
36416;DHT22;22447;44.530;18.620;2023-03-20T08:05:04;17.00;99.90
36416;DHT22;22447;44.530;18.620;2023-03-20T08:07:30;17.00;99.90
36416;DHT22;22447;44.530;18.620;2023-03-20T08:09:56;17.20;99.90
36416;DHT22;22447;44.530;18.620;2023-03-20T08:12:22;17.30;99.90
36416;DHT22;22447;44.530;18.620;2023-03-20T08:14:48;17.30;99.90
36416;DHT22;22447;44.530;18.620;2023-03-20T08:17:14;17.10;99.90
36416;DHT22;22447;44.530;18.620;2023-03-20T08:19:40;16.90;99.90
36416;DHT22;22447;44.530;18.620;2023-03-20T08:22:06;17.10;99.90
36416;DHT22;22447;44.530;18.620;2023-03-20T08:24:32;17.30;99.90
36416;DHT22;22447;44.530;18.620;2023-03-20T08:26:58;17.60;99.90
36416;DHT22;22447;44.530;18.620;2023-03-20T08:29:24;17.70;99.90
36416;DHT22;22447;44.530;18.620;2023-03-20T08:31:50;18.10;99.90
36416;DHT22;22447;44.530;18.620;2023-03-20T08:34:16;18.10;99.90
36416;DHT22;22447;44.530;18.620;2023-03-20T08:36:45;18.20;99.90
36416;DHT22;22447;44.530;18.620;2023-03-20T08:39:11;18.40;99.90
36416;DHT22;22447;44.530;18.620;2023-03-20T08:41:36;18.40;99.90
36416;DHT22;22447;44.530;18.620;2023-03-20T08:44:08;18.50;99.90
36416;DHT22;22447;44.530;18.620;2023-03-20T08:46:34;18.80;99.90
36416;DHT22;22447;44.530;18.620;2023-03-20T08:49:01;19.10;99.90
36416;DHT22;22447;44.530;18.620;2023-03-20T08:51:27;19.60;99.90
36416;DHT22;22447;44.530;18.620;2023-03-20T08:53:53;19.70;99.90
36416;DHT22;22447;44.530;18.620;2023-03-20T08:56:19;20.20;99.90
36416;DHT22;22447;44.530;18.620;2023-03-20T08:58:45;20.20;99.90
36416;DHT22;22447;44.530;18.620;2023-03-20T09:01:11;20.20;99.90
36416;DHT22;22447;44.530;18.620;2023-03-20T09:03:37;20.50;99.90
36416;DHT22;22447;44.530;18.620;2023-03-20T09:06:08;20.20;99.90
36416;DHT22;22447;44.530;18.620;2023-03-20T09:08:34;20.60;99.90
36416;DHT22;22447;44.530;18.620;2023-03-20T09:11:01;20.90;99.90
36416;DHT22;22447;44.530;18.620;2023-03-20T09:13:27;21.30;99.90
36416;DHT22;22447;44.530;18.620;2023-03-20T09:15:54;21.60;99.90
36416;DHT22;22447;44.530;18.620;2023-03-20T09:18:21;21.80;99.90
36416;DHT22;22447;44.530;18.620;2023-03-20T09:20:47;22.20;99.90
36416;DHT22;22447;44.530;18.620;2023-03-20T09:23:14;22.20;99.90
36416;DHT22;22447;44.530;18.620;2023-03-20T09:25:40;22.40;99.90
36416;DHT22;22447;44.530;18.620;2023-03-20T09:28:06;22.30;99.90
36416;DHT22;22447;44.530;18.620;2023-03-20T09:30:32;22.30;99.90
36416;DHT22;22447;44.530;18.620;2023-03-20T09:32:58;22.20;99.90
36416;DHT22;22447;44.530;18.620;2023-03-20T09:35:24;22.30;99.90
36416;DHT22;22447;44.530;18.620;2023-03-20T09:37:50;21.90;99.90
36416;DHT22;22447;44.530;18.620;2023-03-20T09:40:34;22.00;99.90
36416;DHT22;22447;44.530;18.620;2023-03-20T09:43:10;21.60;99.90
36416;DHT22;22447;44.530;18.620;2023-03-20T09:48:48;21.50;99.90
36416;DHT22;22447;44.530;18.620;2023-03-20T09:54:14;22.20;99.90
36416;DHT22;22447;44.530;18.620;2023-03-20T09:56:43;22.80;99.90
36416;DHT22;22447;44.530;18.620;2023-03-20T09:59:13;23.50;99.90
36416;DHT22;22447;44.530;18.620;2023-03-20T10:01:44;23.90;99.90
36416;DHT22;22447;44.530;18.620;2023-03-20T10:04:13;24.10;99.90
36416;DHT22;22447;44.530;18.620;2023-03-20T10:06:39;24.10;99.90
36416;DHT22;22447;44.530;18.620;2023-03-20T10:14:30;23.80;99.90
36416;DHT22;22447;44.530;18.620;2023-03-20T10:22:41;24.00;99.90
36416;DHT22;22447;44.530;18.620;2023-03-20T10:25:21;24.20;99.90
36416;DHT22;22447;44.530;18.620;2023-03-20T10:27:55;23.70;99.90
36416;DHT22;22447;44.530;18.620;2023-03-20T10:41:53;24.00;99.90
36416;DHT22;22447;44.530;18.620;2023-03-20T10:44:36;24.70;99.90
36416;DHT22;22447;44.530;18.620;2023-03-20T10:47:05;25.50;99.90
36416;DHT22;22447;44.530;18.620;2023-03-20T10:50:10;26.00;99.90
36416;DHT22;22447;44.530;18.620;2023-03-20T10:52:40;26.30;99.90
36416;DHT22;22447;44.530;18.620;2023-03-20T10:55:14;25.50;99.90
36416;DHT22;22447;44.530;18.620;2023-03-20T10:57:55;25.50;99.90
36416;DHT22;22447;44.530;18.620;2023-03-20T11:00:24;25.80;99.90
36416;DHT22;22447;44.530;18.620;2023-03-20T11:02:50;25.60;99.90
36416;DHT22;22447;44.530;18.620;2023-03-20T11:05:28;25.20;99.90
36416;DHT22;22447;44.530;18.620;2023-03-20T11:08:11;24.80;99.90
36416;DHT22;22447;44.530;18.620;2023-03-20T11:10:39;25.60;99.90
36416;DHT22;22447;44.530;18.620;2023-03-20T11:15:52;26.30;99.90
36416;DHT22;22447;44.530;18.620;2023-03-20T11:18:18;26.00;99.90
36416;DHT22;22447;44.530;18.620;2023-03-20T11:20:55;25.90;99.90
36416;DHT22;22447;44.530;18.620;2023-03-20T11:23:31;25.70;99.90
36416;DHT22;22447;44.530;18.620;2023-03-20T11:26:10;26.10;99.90
36416;DHT22;22447;44.530;18.620;2023-03-20T11:28:49;25.60;99.90
36416;DHT22;22447;44.530;18.620;2023-03-20T11:31:19;25.10;99.90
36416;DHT22;22447;44.530;18.620;2023-03-20T11:33:51;24.60;99.90
36416;DHT22;22447;44.530;18.620;2023-03-20T11:36:30;24.90;99.90
36416;DHT22;22447;44.530;18.620;2023-03-20T11:39:28;24.50;99.90
36416;DHT22;22447;44.530;18.620;2023-03-20T11:41:58;24.90;99.90
36416;DHT22;22447;44.530;18.620;2023-03-20T11:49:23;25.20;99.90
36416;DHT22;22447;44.530;18.620;2023-03-20T11:51:51;24.70;99.90
36416;DHT22;22447;44.530;18.620;2023-03-20T11:54:21;24.70;99.90
36416;DHT22;22447;44.530;18.620;2023-03-20T11:56:54;25.00;99.90
36416;DHT22;22447;44.530;18.620;2023-03-20T11:59:21;25.40;99.90
36416;DHT22;22447;44.530;18.620;2023-03-20T12:01:51;25.20;99.90
36416;DHT22;22447;44.530;18.620;2023-03-20T12:19:58;25.90;99.90
36416;DHT22;22447;44.530;18.620;2023-03-20T12:22:33;25.70;99.90
36416;DHT22;22447;44.530;18.620;2023-03-20T12:25:24;24.50;99.90
36416;DHT22;22447;44.530;18.620;2023-03-20T12:28:13;24.90;99.90
36416;DHT22;22447;44.530;18.620;2023-03-20T12:31:05;25.40;99.90
36416;DHT22;22447;44.530;18.620;2023-03-20T12:33:48;24.90;99.90
36416;DHT22;22447;44.530;18.620;2023-03-20T12:36:17;24.80;99.90
36416;DHT22;22447;44.530;18.620;2023-03-20T12:38:46;25.00;99.90
36416;DHT22;22447;44.530;18.620;2023-03-20T12:41:18;24.70;99.90
36416;DHT22;22447;44.530;18.620;2023-03-20T12:44:29;24.60;99.90
36416;DHT22;22447;44.530;18.620;2023-03-20T12:52:42;24.50;99.90
36416;DHT22;22447;44.530;18.620;2023-03-20T13:06:22;23.40;99.90
36416;DHT22;22447;44.530;18.620;2023-03-20T13:11:57;23.10;99.90
36416;DHT22;22447;44.530;18.620;2023-03-20T13:14:40;23.00;99.90
36416;DHT22;22447;44.530;18.620;2023-03-20T13:18:34;22.80;99.90
36416;DHT22;22447;44.530;18.620;2023-03-20T13:20:30;22.60;99.90
36416;DHT22;22447;44.530;18.620;2023-03-20T13:29:16;22.10;99.90
36416;DHT22;22447;44.530;18.620;2023-03-20T13:37:17;21.70;99.90
36416;DHT22;22447;44.530;18.620;2023-03-20T13:42:18;21.50;99.90
36416;DHT22;22447;44.530;18.620;2023-03-20T13:44:46;21.40;99.90
36416;DHT22;22447;44.530;18.620;2023-03-20T13:47:23;21.10;99.90
36416;DHT22;22447;44.530;18.620;2023-03-20T13:52:44;20.90;99.90
36416;DHT22;22447;44.530;18.620;2023-03-20T14:01:29;20.50;99.90
36416;DHT22;22447;44.530;18.620;2023-03-20T14:03:59;20.30;99.90
36416;DHT22;22447;44.530;18.620;2023-03-20T14:08:57;19.90;99.90
36416;DHT22;22447;44.530;18.620;2023-03-20T14:14:02;19.80;99.90
36416;DHT22;22447;44.530;18.620;2023-03-20T14:16:31;19.60;99.90
36416;DHT22;22447;44.530;18.620;2023-03-20T14:21:35;19.30;99.90
36416;DHT22;22447;44.530;18.620;2023-03-20T14:24:09;19.30;99.90
36416;DHT22;22447;44.530;18.620;2023-03-20T14:26:38;19.10;99.90
36416;DHT22;22447;44.530;18.620;2023-03-20T14:31:37;19.00;99.90
36416;DHT22;22447;44.530;18.620;2023-03-20T14:34:43;18.90;99.90
36416;DHT22;22447;44.530;18.620;2023-03-20T14:36:59;18.90;99.90
36416;DHT22;22447;44.530;18.620;2023-03-20T14:47:52;18.80;99.90
36416;DHT22;22447;44.530;18.620;2023-03-20T14:53:03;18.80;99.90
36416;DHT22;22447;44.530;18.620;2023-03-20T14:56:19;18.70;99.90
36416;DHT22;22447;44.530;18.620;2023-03-20T15:03:57;18.40;99.90
36416;DHT22;22447;44.530;18.620;2023-03-20T15:06:26;18.40;99.90
36416;DHT22;22447;44.530;18.620;2023-03-20T15:08:58;18.40;99.90
36416;DHT22;22447;44.530;18.620;2023-03-20T15:11:25;18.30;99.90
36416;DHT22;22447;44.530;18.620;2023-03-20T15:13:52;18.20;99.90
36416;DHT22;22447;44.530;18.620;2023-03-20T15:16:27;18.20;99.90
36416;DHT22;22447;44.530;18.620;2023-03-20T15:18:54;18.20;99.90
36416;DHT22;22447;44.530;18.620;2023-03-20T15:23:53;18.00;99.90
36416;DHT22;22447;44.530;18.620;2023-03-20T15:26:20;17.90;99.90
36416;DHT22;22447;44.530;18.620;2023-03-20T15:28:46;17.90;99.90
36416;DHT22;22447;44.530;18.620;2023-03-20T15:31:25;17.80;99.90
36416;DHT22;22447;44.530;18.620;2023-03-20T15:33:52;17.70;99.90
36416;DHT22;22447;44.530;18.620;2023-03-20T15:36:22;17.60;99.90
36416;DHT22;22447;44.530;18.620;2023-03-20T15:38:52;17.60;99.90
36416;DHT22;22447;44.530;18.620;2023-03-20T15:41:34;17.50;99.90
36416;DHT22;22447;44.530;18.620;2023-03-20T15:46:57;17.40;99.90
36416;DHT22;22447;44.530;18.620;2023-03-20T15:49:25;17.40;99.90
36416;DHT22;22447;44.530;18.620;2023-03-20T15:51:53;17.30;99.90
36416;DHT22;22447;44.530;18.620;2023-03-20T15:54:21;17.20;99.90
36416;DHT22;22447;44.530;18.620;2023-03-20T15:56:50;17.20;99.90
36416;DHT22;22447;44.530;18.620;2023-03-20T15:59:19;17.10;99.90
36416;DHT22;22447;44.530;18.620;2023-03-20T16:01:49;17.00;99.90
36416;DHT22;22447;44.530;18.620;2023-03-20T16:04:17;16.90;99.90
36416;DHT22;22447;44.530;18.620;2023-03-20T16:06:55;16.80;99.90
36416;DHT22;22447;44.530;18.620;2023-03-20T16:09:23;16.80;99.90
36416;DHT22;22447;44.530;18.620;2023-03-20T16:12:00;16.80;99.90
36416;DHT22;22447;44.530;18.620;2023-03-20T16:14:31;16.70;99.90
36416;DHT22;22447;44.530;18.620;2023-03-20T16:17:00;16.70;99.90
36416;DHT22;22447;44.530;18.620;2023-03-20T16:19:27;16.70;99.90
36416;DHT22;22447;44.530;18.620;2023-03-20T16:24:38;16.50;99.90
36416;DHT22;22447;44.530;18.620;2023-03-20T16:27:07;16.40;99.90
36416;DHT22;22447;44.530;18.620;2023-03-20T16:29:34;16.30;99.90
36416;DHT22;22447;44.530;18.620;2023-03-20T16:32:16;16.30;99.90
36416;DHT22;22447;44.530;18.620;2023-03-20T16:34:49;16.20;99.90
36416;DHT22;22447;44.530;18.620;2023-03-20T16:37:36;16.20;99.90
36416;DHT22;22447;44.530;18.620;2023-03-20T16:40:10;16.10;99.90
36416;DHT22;22447;44.530;18.620;2023-03-20T16:42:38;16.10;99.90
36416;DHT22;22447;44.530;18.620;2023-03-20T16:45:07;15.90;99.90
36416;DHT22;22447;44.530;18.620;2023-03-20T16:47:39;15.80;99.90
36416;DHT22;22447;44.530;18.620;2023-03-20T16:50:21;15.80;99.90
36416;DHT22;22447;44.530;18.620;2023-03-20T16:52:58;15.70;99.90
36416;DHT22;22447;44.530;18.620;2023-03-20T16:55:28;15.70;99.90
36416;DHT22;22447;44.530;18.620;2023-03-20T16:57:58;15.60;99.90
36416;DHT22;22447;44.530;18.620;2023-03-20T17:00:40;15.50;99.90
36416;DHT22;22447;44.530;18.620;2023-03-20T17:03:14;15.50;99.90
36416;DHT22;22447;44.530;18.620;2023-03-20T17:05:55;15.40;99.90
36416;DHT22;22447;44.530;18.620;2023-03-20T17:08:30;15.30;99.90
36416;DHT22;22447;44.530;18.620;2023-03-20T17:11:03;15.20;99.90
36416;DHT22;22447;44.530;18.620;2023-03-20T17:13:30;15.10;99.90
36416;DHT22;22447;44.530;18.620;2023-03-20T17:15:56;15.00;99.90
36416;DHT22;22447;44.530;18.620;2023-03-20T17:18:23;14.90;99.90
36416;DHT22;22447;44.530;18.620;2023-03-20T17:20:50;14.90;99.90
36416;DHT22;22447;44.530;18.620;2023-03-20T17:23:19;14.90;99.90
36416;DHT22;22447;44.530;18.620;2023-03-20T17:25:46;14.80;99.90
36416;DHT22;22447;44.530;18.620;2023-03-20T17:28:20;14.80;99.90
36416;DHT22;22447;44.530;18.620;2023-03-20T17:30:48;14.70;99.90
36416;DHT22;22447;44.530;18.620;2023-03-20T17:33:16;14.70;99.90
36416;DHT22;22447;44.530;18.620;2023-03-20T17:35:43;14.60;99.90
36416;DHT22;22447;44.530;18.620;2023-03-20T17:38:20;14.50;99.90
36416;DHT22;22447;44.530;18.620;2023-03-20T17:40:47;14.50;99.90
36416;DHT22;22447;44.530;18.620;2023-03-20T17:43:14;14.40;99.90
36416;DHT22;22447;44.530;18.620;2023-03-20T17:45:41;14.30;99.90
36416;DHT22;22447;44.530;18.620;2023-03-20T17:48:19;14.30;99.90
36416;DHT22;22447;44.530;18.620;2023-03-20T17:50:49;14.20;99.90
36416;DHT22;22447;44.530;18.620;2023-03-20T17:53:22;14.20;99.90
36416;DHT22;22447;44.530;18.620;2023-03-20T17:55:50;14.10;99.90
36416;DHT22;22447;44.530;18.620;2023-03-20T17:58:21;14.10;99.90
36416;DHT22;22447;44.530;18.620;2023-03-20T18:00:51;14.10;99.90
36416;DHT22;22447;44.530;18.620;2023-03-20T18:03:18;14.00;99.90
36416;DHT22;22447;44.530;18.620;2023-03-20T18:05:46;14.00;99.90
36416;DHT22;22447;44.530;18.620;2023-03-20T18:08:14;13.90;99.90
36416;DHT22;22447;44.530;18.620;2023-03-20T18:10:42;13.90;99.90
36416;DHT22;22447;44.530;18.620;2023-03-20T18:13:08;13.80;99.90
36416;DHT22;22447;44.530;18.620;2023-03-20T18:15:35;13.80;99.90
36416;DHT22;22447;44.530;18.620;2023-03-20T18:18:03;13.80;99.90
36416;DHT22;22447;44.530;18.620;2023-03-20T18:20:32;13.80;99.90
36416;DHT22;22447;44.530;18.620;2023-03-20T18:22:59;13.70;99.90
36416;DHT22;22447;44.530;18.620;2023-03-20T18:25:25;13.60;99.90
36416;DHT22;22447;44.530;18.620;2023-03-20T18:27:53;13.60;99.90
36416;DHT22;22447;44.530;18.620;2023-03-20T18:30:22;13.60;99.90
36416;DHT22;22447;44.530;18.620;2023-03-20T18:32:48;13.50;99.90
36416;DHT22;22447;44.530;18.620;2023-03-20T18:35:14;13.50;99.90